DW9069 Weather Reports


time (UTC)temp
C
wind
direction
speed
KPH
gust
KPH
rain 1hr
cm
rain 24hr
cm
rain mn
cm
humidity
%
barometer
mb
20210518205047 23 239 33.8 49.9 0.00 0.00 0.00 33 1004.3
20210518204716 23 229 27.4 41.8 0.00 0.00 0.00 35 1004.2
20210518204052 23 227 33.8 45.1 0.00 0.00 0.00 34 1004.3
20210518203547 23 248 29.0 45.1 0.00 0.00 0.00 32 1004.3
20210518203118 23 257 25.7 45.1 0.00 0.00 0.00 33 1004.3
20210518202622 23 228 30.6 45.1 0.00 0.00 0.00 33 1004.5
20210518202042 22 207 27.4 43.5 0.00 0.00 0.00 35 1004.5
20210518201600 22 232 25.7 38.6 0.00 0.00 0.00 38 1004.5
20210518201043 22 175 25.7 41.8 0.00 0.00 0.00 39 1004.5
20210518200541 22 180 30.6 46.7 0.00 0.00 0.00 36 1004.6
20210518200132 23 189 24.1 43.5 0.00 0.00 0.00 40 1004.6
20210518195542 22 213 27.4 43.5 0.00 0.00 0.00 40 1004.6
20210518195040 22 188 19.3 35.4 0.00 0.00 0.00 41 1004.7
20210518194624 22 206 24.1 40.2 0.00 0.00 0.00 41 1004.9
20210518194040 22 211 20.9 35.4 0.00 0.00 0.00 43 1004.9
20210518193558 22 209 20.9 40.2 0.00 0.00 0.00 45 1005.2
20210518193112 22 200 22.5 37.0 0.00 0.00 0.00 46 1005.2
20210518192601 22 205 22.5 37.0 0.00 0.00 0.00 44 1005.2
20210518192034 21 188 16.1 30.6 0.00 0.00 0.00 47 1005.4
20210518191603 21 212 20.9 32.2 0.00 0.00 0.00 46 1005.6
20210518191032 21 208 19.3 33.8 0.00 0.00 0.00 49 1005.7
20210518190529 21 196 20.9 33.8 0.00 0.00 0.00 46 1005.7
20210518190043 21 194 20.9 35.4 0.00 0.00 0.00 49 1006.0
20210518185526 20 200 22.5 38.6 0.00 0.00 0.00 49 1006.0
20210518185031 20 183 20.9 35.4 0.00 0.00 0.00 50 1006.1
20210518184533 20 184 22.5 35.4 0.00 0.00 0.00 51 1006.3
20210518184024 20 200 19.3 30.6 0.00 0.00 0.00 49 1006.4
20210518183531 20 194 20.9 35.4 0.00 0.00 0.00 50 1006.4
20210518183124 20 203 25.7 35.4 0.00 0.00 0.00 51 1006.5
20210518182527 20 219 24.1 37.0 0.00 0.00 0.00 52 1006.6
20210518182025 19 163 27.4 37.0 0.00 0.00 0.00 52 1006.6
20210518181627 19 226 27.4 38.6 0.00 0.00 0.00 52 1006.6
20210518181025 19 208 25.7 37.0 0.00 0.00 0.00 51 1006.7
20210518180529 19 242 29.0 43.5 0.00 0.00 0.00 51 1006.8
20210518180026 19 257 24.1 43.5 0.00 0.00 0.00 52 1006.9
20210518175519 19 223 20.9 41.8 0.00 0.00 0.00 51 1006.9
20210518175037 19 207 24.1 41.8 0.00 0.00 0.00 55 1007.0
20210518174523 18 211 20.9 40.2 0.00 0.00 0.00 51 1007.0
20210518174018 18 220 25.7 37.0 0.00 0.00 0.00 53 1007.1
20210518173518 18 189 25.7 37.0 0.00 0.00 0.00 52 1007.2
20210518173033 18 200 29.0 35.4 0.00 0.00 0.00 49 1007.2
20210518172527 18 217 22.5 35.4 0.00 0.00 0.00 52 1007.2
20210518172018 18 217 20.9 40.2 0.00 0.00 0.00 55 1007.0
20210518171550 18 181 20.9 40.2 0.00 0.00 0.00 54 1007.2
20210518171014 18 212 29.0 45.1 0.00 0.00 0.00 52 1007.1
20210518170526 18 230 30.6 45.1 0.00 0.00 0.00 50 1007.2
20210518170034 18 209 24.1 41.8 0.00 0.00 0.00 52 1007.2
20210518165514 18 221 29.0 41.8 0.00 0.00 0.00 51 1007.1
20210518165016 18 171 25.7 37.0 0.00 0.00 0.00 51 1007.1
20210518164517 18 190 17.7 33.8 0.00 0.00 0.00 54 1007.1
20210518164012 18 207 22.5 40.2 0.00 0.00 0.00 54 1007.2
20210518163517 17 200 25.7 40.2 0.00 0.00 0.00 51 1007.3
20210518163031 17 215 25.7 40.2 0.00 0.00 0.00 51 1007.3
20210518162520 18 189 25.7 35.4 0.00 0.00 0.00 52 1007.3
20210518162017 17 219 22.5 37.0 0.00 0.00 0.00 51 1007.3
20210518161515 17 213 22.5 33.8 0.00 0.00 0.00 51 1007.3
20210518161011 17 196 19.3 33.8 0.00 0.00 0.00 52 1007.4
20210518160515 17 227 24.1 35.4 0.00 0.00 0.00 52 1007.4
20210518160014 17 220 27.4 35.4 0.00 0.00 0.00 52 1007.4
20210518155511 17 229 20.9 37.0 0.00 0.00 0.00 53 1007.3
20210518155011 17 218 19.3 30.6 0.00 0.00 0.00 55 1007.3
20210518154530 17 208 19.3 32.2 0.00 0.00 0.00 54 1007.5
20210518154006 17 204 17.7 30.6 0.00 0.00 0.00 58 1007.4
20210518153508 17 217 22.5 30.6 0.00 0.00 0.00 55 1007.5
20210518153009 17 216 17.7 27.4 0.00 0.00 0.00 59 1007.5
20210518152508 16 214 19.3 25.7 0.00 0.00 0.00 59 1007.6
20210518152003 16 215 16.1 27.4 0.00 0.00 0.00 60 1007.6
20210518151508 16 197 16.1 27.4 0.00 0.00 0.00 61 1007.5
20210518151003 16 192 14.5 25.7 0.00 0.00 0.00 60 1007.6
20210518150502 16 202 14.5 25.7 0.00 0.00 0.00 63 1007.6
20210518150004 16 211 11.3 20.9 0.00 0.00 0.00 64 1007.6
20210518145600 16 188 6.4 14.5 0.00 0.00 0.00 64 1007.6
20210518145143 16 199 8.0 14.5 0.00 0.00 0.00 64 1007.7
20210518144746 15 197 4.8 11.3 0.00 0.00 0.00 63 1007.6
20210518144058 15 193 6.4 11.3 0.00 0.00 0.00 63 1007.6
20210518143610 15 175 3.2 8.0 0.00 0.00 0.00 64 1007.6
20210518143153 14 146 1.6 11.3 0.00 0.00 0.00 66 1007.5
20210518142554 14 146 3.2 11.3 0.00 0.00 0.00 66 1007.6
20210518142052 14 163 3.2 6.4 0.00 0.00 0.00 65 1007.5
20210518141608 13 173 1.6 8.0 0.00 0.00 0.00 68 1007.5
20210518141050 13 168 4.8 8.0 0.00 0.00 0.00 68 1007.4
20210518140550 13 138 3.2 6.4 0.00 0.00 0.00 67 1007.5
20210518140149 13 133 0.0 4.8 0.00 0.00 0.00 70 1007.3
20210518135553 12 133 1.6 4.8 0.00 0.00 0.00 70 1007.3
20210518135053 12 133 1.6 4.8 0.00 0.00 0.00 68 1007.3
20210518134600 12 133 0.0 4.8 0.00 0.00 0.00 71 1007.3
20210518134051 12 133 1.6 4.8 0.00 0.00 0.00 71 1007.5
20210518133544 12 133 0.0 4.8 0.00 0.00 0.00 74 1007.4
20210518133105 11 133 1.6 4.8 0.00 0.00 0.00 73 1007.3
20210518132543 11 133 1.6 4.8 0.00 0.00 0.00 75 1007.3
20210518132057 10 133 1.6 4.8 0.00 0.00 0.00 77 1007.3
20210518131632 9 133 1.6 6.4 0.00 0.00 0.00 84 1007.2
20210518131041 8 133 3.2 6.4 0.00 0.00 0.00 84 1007.2
20210518130543 8 133 3.2 6.4 0.00 0.00 0.00 83 1007.1
20210518130320 8 133 3.2 4.8 0.00 0.00 0.00 82 1007.0
20210518125539 8 133 0.0 1.6 0.00 0.00 0.00 80 1006.9
20210518125044 8 133 0.0 3.2 0.00 0.00 0.00 80 1006.9
20210518124602 8 133 1.6 6.4 0.00 0.00 0.00 82 1006.9
20210518124039 7 133 1.6 6.4 0.00 0.00 0.00 82 1006.9
20210518123538 7 133 1.6 4.8 0.00 0.00 0.00 81 1006.8
20210518123045 8 133 1.6 4.8 0.00 0.00 0.00 79 1006.7
20210518122541 8 133 1.6 4.8 0.00 0.00 0.00 77 1006.6
20210518122037 8 133 0.0 4.8 0.00 0.00 0.00 79 1006.5
20210518121603 7 133 1.6 3.2 0.00 0.00 0.00 80 1006.4
20210518121036 7 133 0.0 3.2 0.00 0.00 0.00 79 1006.5
20210518120536 7 133 1.6 3.2 0.00 0.00 0.00 78 1006.5
20210518120040 8 133 1.6 6.4 0.00 0.00 0.00 77 1006.4
20210518115542 8 133 3.2 6.4 0.00 0.00 0.00 77 1006.4
20210518115035 8 135 4.8 6.4 0.00 0.00 0.00 78 1006.5
20210518114708 8 159 3.2 6.4 0.00 0.00 0.00 74 1006.4
20210518114036 9 173 0.0 8.0 0.00 0.00 0.00 75 1006.4
20210518113541 8 178 3.2 8.0 0.00 0.00 0.00 78 1006.5
20210518113052 7 355 1.6 4.8 0.00 0.00 0.00 80 1006.5
20210518112537 8 355 1.6 4.8 0.00 0.00 0.00 80 1006.6
20210518112034 7 355 1.6 4.8 0.00 0.00 0.00 80 1006.7
20210518111613 7 355 0.0 4.8 0.00 0.00 0.00 81 1006.7
20210518111036 7 355 1.6 4.8 0.00 0.00 0.00 79 1006.6
20210518110535 8 355 0.0 1.6 0.00 0.00 0.00 77 1006.5
20210518110102 8 355 0.0 0.0 0.00 0.00 0.00 78 1006.5
20210518105531 8 355 0.0 3.2 0.00 0.00 0.00 79 1006.6
20210518105031 8 355 1.6 6.4 0.00 0.00 0.00 80 1006.5
20210518104621 7 355 1.6 6.4 0.00 0.00 0.00 80 1006.5
20210518104028 7 355 3.2 4.8 0.00 0.00 0.00 80 1006.4
20210518103539 7 355 0.0 6.4 0.00 0.00 0.00 80 1006.4
20210518103050 7 355 3.2 6.4 0.00 0.00 0.00 78 1006.4
20210518102525 8 12 0.0 0.0 0.00 0.00 0.00 77 1006.3
20210518102025 8 12 0.0 6.4 0.00 0.00 0.00 79 1006.2
20210518101549 8 12 1.6 6.4 0.00 0.00 0.00 76 1006.3
20210518101023 8 36 0.0 4.8 0.00 0.00 0.00 77 1006.2
20210518100538 8 36 1.6 8.0 0.00 0.00 0.00 77 1006.2
20210518100134 8 36 4.8 8.0 0.00 0.00 0.00 78 1006.1
20210518095532 8 115 1.6 4.8 0.00 0.00 0.00 76 1006.0
20210518095021 8 115 0.0 4.8 0.00 0.00 0.00 74 1005.9
20210518094521 9 115 3.2 6.4 0.00 0.00 0.00 72 1006.0
20210518094029 9 115 3.2 6.4 0.00 0.00 0.00 74 1005.9
20210518093520 8 115 3.2 6.4 0.00 0.00 0.00 75 1005.9
20210518093101 9 115 0.0 3.2 0.00 0.00 0.00 74 1005.9
20210518092519 8 115 0.0 4.8 0.00 0.00 0.00 76 1005.8
20210518092033 8 115 3.2 4.8 0.00 0.00 0.00 77 1005.9
20210518091540 8 115 0.0 3.2 0.00 0.00 0.00 77 1005.8
20210518091018 8 115 0.0 4.8 0.00 0.00 0.00 76 1005.8
20210518090522 8 115 1.6 4.8 0.00 0.00 0.00 77 1005.9
20210518090036 9 115 1.6 4.8 0.00 0.00 0.00 75 1005.9
20210518085517 8 115 1.6 6.4 0.00 0.00 0.00 77 1005.8
20210518085016 8 115 3.2 6.4 0.00 0.00 0.00 76 1005.9
20210518084518 10 186 1.6 6.4 0.00 0.00 0.00 70 1006.0
20210518084014 11 186 1.6 6.4 0.00 0.00 0.00 69 1006.0
20210518083520 11 187 3.2 8.0 0.00 0.00 0.00 69 1006.1
20210518083023 11 199 1.6 6.4 0.00 0.00 0.00 69 1006.0
20210518082513 11 199 3.2 8.0 0.00 0.00 0.00 70 1006.1
20210518082017 11 199 4.8 8.0 0.00 0.00 0.00 70 1006.1
20210518081515 10 199 1.6 4.8 0.00 0.00 0.00 73 1006.0
20210518081011 9 199 1.6 3.2 0.00 0.00 0.00 76 1006.0
20210518080512 9 199 0.0 1.6 0.00 0.00 0.00 75 1006.1
20210518080013 9 199 0.0 1.6 0.00 0.00 0.00 74 1006.1
20210518075510 10 199 0.0 3.2 0.00 0.00 0.00 71 1006.0
20210518075019 10 199 0.0 3.2 0.00 0.00 0.00 71 1006.0
20210518074535 10 199 0.0 3.2 0.00 0.00 0.00 71 1005.9
20210518074008 10 199 0.0 0.0 0.00 0.00 0.00 69 1005.9
20210518073508 10 199 0.0 3.2 0.00 0.00 0.00 70 1005.9
20210518073016 10 199 0.0 3.2 0.00 0.00 0.00 70 1006.0
20210518072507 11 199 1.6 3.2 0.00 0.00 0.00 68 1006.0
20210518072011 11 199 1.6 3.2 0.00 0.00 0.00 67 1006.2
20210518071507 11 199 1.6 4.8 0.00 0.00 0.00 69 1006.1
20210518071011 10 199 1.6 6.4 0.00 0.00 0.00 74 1006.1
20210518070505 10 199 3.2 6.4 0.00 0.00 0.00 75 1006.2
20210518070008 10 199 3.2 4.8 0.00 0.00 0.00 73 1006.2
20210518065515 11 199 1.6 4.8 0.00 0.00 0.00 71 1006.1
20210518065006 10 199 1.6 3.2 0.00 0.00 0.00 69 1006.1
20210518064502 10 199 0.0 1.6 0.00 0.00 0.00 67 1006.0
20210518064002 11 199 0.0 3.2 0.00 0.00 0.00 65 1006.0
20210518063501 12 199 0.0 3.2 0.00 0.00 0.00 62 1006.1
20210518062600 11 199 0.0 3.2 0.00 0.00 0.00 64 1006.0
20210518062059 11 199 0.0 0.0 0.00 0.00 0.00 64 1006.1
20210518061751 11 199 0.0 3.2 0.00 0.00 0.00 66 1006.0
20210518061059 11 199 0.0 3.2 0.00 0.00 0.00 69 1006.1
20210518060559 11 199 0.0 3.2 0.00 0.00 0.00 68 1006.0
20210518060120 11 199 0.0 4.8 0.00 0.00 0.00 66 1006.0
20210518055557 12 199 0.0 4.8 0.00 0.00 0.00 64 1006.0
20210518055104 11 199 3.2 4.8 0.00 0.00 0.00 65 1005.9
20210518054609 12 199 1.6 4.8 0.00 0.00 0.00 64 1005.9
20210518054058 12 199 3.2 4.8 0.00 0.00 0.00 63 1005.9
20210518053604 12 199 3.2 6.4 0.00 0.00 0.00 62 1005.9
20210518053106 12 199 3.2 6.4 0.00 0.00 0.00 63 1005.8
20210518052557 12 199 3.2 8.0 0.00 0.00 0.00 61 1005.8
20210518052137 13 199 4.8 8.0 0.00 0.00 0.00 58 1005.7
20210518051639 13 199 4.8 9.7 0.00 0.00 0.00 56 1005.7
20210518051103 13 199 4.8 9.7 0.00 0.00 0.00 56 1005.7
20210518050611 13 199 4.8 8.0 0.00 0.00 0.00 56 1005.7
20210518050131 14 202 6.4 9.7 0.00 0.00 0.00 55 1005.7
20210518045553 14 203 6.4 12.9 0.00 0.00 0.00 54 1005.6
20210518045132 15 198 6.4 14.5 0.00 0.00 0.00 53 1005.6
20210518044634 15 205 6.4 14.5 0.00 0.00 0.00 50 1005.6
20210518044052 16 178 8.0 14.5 0.00 0.00 0.00 49 1005.6
20210518043617 16 194 8.0 16.1 0.00 0.00 0.00 49 1005.6
20210518043137 16 195 8.0 16.1 0.00 0.00 0.00 48 1005.5
20210518042552 16 173 6.4 11.3 0.00 0.00 0.00 49 1005.4
20210518042113 16 184 6.4 11.3 0.00 0.00 0.00 48 1005.3
20210518041644 16 166 6.4 11.3 0.00 0.00 0.00 47 1005.3
20210518041131 17 181 6.4 11.3 0.00 0.00 0.00 45 1005.3
20210518040552 17 185 6.4 12.9 0.00 0.00 0.00 46 1005.2
20210518040152 17 164 6.4 12.9 0.00 0.00 0.00 46 1005.2
20210518035553 17 187 6.4 12.9 0.00 0.00 0.00 47 1005.2
20210518035051 17 175 8.0 12.9 0.00 0.00 0.00 46 1005.2
20210518034600 17 198 8.0 14.5 0.00 0.00 0.00 44 1005.1
20210518034051 17 192 9.7 17.7 0.00 0.00 0.00 44 1005.0
20210518033553 17 211 8.0 17.7 0.00 0.00 0.00 45 1004.9
20210518033222 18 188 8.0 14.5 0.00 0.00 0.00 45 1004.9
20210518032600 18 190 8.0 14.5 0.00 0.00 0.00 46 1004.8
20210518032106 18 180 8.0 14.5 0.00 0.00 0.00 45 1004.7
20210518031614 18 188 8.0 16.1 0.00 0.00 0.00 45 1004.7
20210518031049 18 207 9.7 16.1 0.00 0.00 0.00 45 1004.7
20210518030549 18 187 8.0 16.1 0.00 0.00 0.00 45 1004.6
20210518030117 18 192 8.0 16.1 0.00 0.00 0.00 45 1004.6
20210518025549 18 192 9.7 16.1 0.00 0.00 0.00 45 1004.6
20210518025049 18 203 9.7 14.5 0.00 0.00 0.00 46 1004.5
20210518024609 19 203 8.0 14.5 0.00 0.00 0.00 47 1004.5
20210518024048 19 190 8.0 16.1 0.00 0.00 0.00 47 1004.6
20210518023555 20 190 12.9 20.9 0.00 0.00 0.00 45 1004.5
20210518023109 20 213 11.3 20.9 0.00 0.00 0.00 46 1004.5
20210518022605 20 190 11.3 19.3 0.00 0.00 0.00 45 1004.5
20210518022058 20 167 9.7 16.1 0.00 0.00 0.00 46 1004.4
20210518021611 20 202 8.0 19.3 0.00 0.00 0.00 45 1004.4
20210518021106 21 202 8.0 19.3 0.00 0.00 0.00 44 1004.3
20210518020546 21 189 8.0 14.5 0.00 0.00 0.00 43 1004.3
20210518020201 21 197 9.7 14.5 0.00 0.00 0.00 43 1004.2
20210518015546 21 178 8.0 19.3 0.00 0.00 0.00 44 1004.2
20210518015045 21 184 9.7 19.3 0.00 0.00 0.00 44 1004.2
20210518014724 21 181 9.7 19.3 0.00 0.00 0.00 43 1004.2
20210518014044 20 198 8.0 17.7 0.00 0.00 0.00 45 1004.2
20210518013543 21 221 9.7 17.7 0.00 0.00 0.00 45 1004.1
20210518013155 21 188 11.3 17.7 0.00 0.00 0.00 42 1004.1
20210518012544 21 198 12.9 17.7 0.00 0.00 0.00 43 1004.2
20210518012044 21 187 9.7 17.7 0.00 0.00 0.00 43 1004.1
20210518011600 21 193 8.0 16.1 0.00 0.00 0.00 46 1004.1
20210518011048 21 172 9.7 19.3 0.00 0.00 0.00 47 1004.1
20210518010543 21 192 9.7 16.1 0.00 0.00 0.00 43 1004.1
20210518010150 21 191 11.3 16.1 0.00 0.00 0.00 42 1004.1
20210518005545 21 191 4.8 12.9 0.00 0.00 0.00 44 1004.1
20210518005058 22 171 6.4 16.1 0.00 0.00 0.00 41 1004.1
20210518004604 22 196 8.0 16.1 0.00 0.00 0.00 41 1004.1
20210518004041 21 159 6.4 14.5 0.00 0.00 0.00 44 1004.2
20210518003544 21 168 8.0 19.3 0.00 0.00 0.00 42 1004.2
20210518003116 21 183 11.3 22.5 0.00 0.00 0.00 43 1004.2
20210518002547 22 206 14.5 22.5 0.00 0.00 0.00 43 1004.1
20210518002040 22 180 9.7 19.3 0.00 0.00 0.00 43 1004.2
20210518001625 22 213 9.7 14.5 0.00 0.00 0.00 45 1004.2
20210518001115 22 208 9.7 14.5 0.00 0.00 0.00 45 1004.2
20210518000540 22 212 6.4 16.1 0.00 0.00 0.00 45 1004.1
20210518000103 22 232 8.0 16.1 0.00 0.00 0.00 39 1004.2
20210517235539 23 192 6.4 16.1 0.00 0.00 0.00 40 1004.1
20210517235039 23 213 6.4 11.3 0.00 0.00 0.00 39 1004.2
20210517234707 23 205 6.4 11.3 0.00 0.00 0.00 37 1004.3
20210517234050 23 194 4.8 11.3 0.00 0.00 0.00 43 1004.3
20210517233554 23 179 3.2 8.0 0.00 0.00 0.00 40 1004.3
20210517233116 23 184 4.8 9.7 0.00 0.00 0.00 34 1004.4
20210517232539 23 217 4.8 9.7 0.00 0.00 0.00 42 1004.4
20210517232036 23 226 4.8 16.1 0.00 0.00 0.00 44 1004.4
20210517231602 23 191 8.0 16.1 0.00 0.00 0.00 40 1004.5
20210517231035 23 219 6.4 9.7 0.00 0.00 0.00 39 1004.5
20210517230535 23 271 6.4 11.3 0.00 0.00 0.00 37 1004.5
20210517230139 23 258 4.8 9.7 0.00 0.00 0.00 32 1004.6
20210517225539 23 231 3.2 12.9 0.00 0.00 0.00 41 1004.6
20210517225036 23 251 4.8 16.1 0.00 0.00 0.00 43 1004.8
20210517224559 23 162 8.0 22.5 0.00 0.00 0.00 31 1004.8
20210517224030 23 219 4.8 22.5 0.00 0.00 0.00 39 1004.9
20210517223530 23 127 4.8 14.5 0.00 0.00 0.00 37 1005.0
20210517223112 23 166 6.4 14.5 0.00 0.00 0.00 40 1005.0
20210517222530 23 187 3.2 16.1 0.00 0.00 0.00 42 1005.1
20210517222029 23 207 9.7 16.1 0.00 0.00 0.00 41 1005.1
20210517221543 23 198 8.0 12.9 0.00 0.00 0.00 39 1005.1
20210517221034 23 258 8.0 12.9 0.00 0.00 0.00 40 1005.2
20210517220554 23 176 4.8 17.7 0.00 0.00 0.00 40 1005.3
20210517220055 23 191 9.7 14.5 0.00 0.00 0.00 40 1005.4
20210517215526 23 264 3.2 8.0 0.00 0.00 0.00 43 1005.6
20210517215109 23 290 1.6 12.9 0.00 0.00 0.00 46 1005.6
20210517214534 23 355 8.0 16.1 0.00 0.00 0.00 35 1005.7
20210517214023 22 300 3.2 29.0 0.00 0.00 0.00 41 1005.7
20210517213534 22 279 8.0 29.0 0.00 0.00 0.00 44 1005.9
20210517213024 22 237 3.2 11.3 0.00 0.00 0.00 37 1006.0
20210517212534 23 195 4.8 11.3 0.00 0.00 0.00 43 1006.0
20210517212020 23 188 1.6 12.9 0.00 0.00 0.00 40 1006.1
20210517211519 22 198 4.8 12.9 0.00 0.00 0.00 41 1006.2
20210517211018 22 233 4.8 14.5 0.00 0.00 0.00 36 1006.3
20210517210522 22 184 8.0 17.7 0.00 0.00 0.00 44 1006.3
20210517210045 22 241 6.4 17.7 0.00 0.00 0.00 43 1006.3
20210517205522 22 204 6.4 12.9 0.00 0.00 0.00 46 1006.4